sensor_id;sensor_type;location;lat;lon;timestamp;pressure;altitude;pressure_sealevel;temperature;humidity
16355;BME280;8287;51.644;8.494;2023-04-21T00:00:48;100237.03;;;11.41;77.72
16355;BME280;8287;51.644;8.494;2023-04-21T00:03:15;100235.03;;;11.38;78.34
16355;BME280;8287;51.644;8.494;2023-04-21T00:05:41;100227.84;;;11.30;78.68
16355;BME280;8287;51.644;8.494;2023-04-21T00:08:08;100228.59;;;11.22;78.92
16355;BME280;8287;51.644;8.494;2023-04-21T00:10:35;100222.66;;;11.16;78.97
16355;BME280;8287;51.644;8.494;2023-04-21T00:13:02;100227.66;;;11.18;78.60
16355;BME280;8287;51.644;8.494;2023-04-21T00:15:29;100230.47;;;11.13;79.24
16355;BME280;8287;51.644;8.494;2023-04-21T00:17:56;100228.28;;;11.15;78.89
16355;BME280;8287;51.644;8.494;2023-04-21T00:20:23;100230.00;;;11.11;79.31
16355;BME280;8287;51.644;8.494;2023-04-21T00:22:51;100227.16;;;10.99;80.12
16355;BME280;8287;51.644;8.494;2023-04-21T00:25:17;100222.25;;;10.75;81.46
16355;BME280;8287;51.644;8.494;2023-04-21T00:27:44;100220.06;;;10.77;82.69
16355;BME280;8287;51.644;8.494;2023-04-21T00:30:12;100211.03;;;10.78;82.94
16355;BME280;8287;51.644;8.494;2023-04-21T00:32:39;100212.59;;;10.71;83.77
16355;BME280;8287;51.644;8.494;2023-04-21T00:35:05;100208.53;;;10.73;84.07
16355;BME280;8287;51.644;8.494;2023-04-21T00:37:32;100213.09;;;10.81;84.54
16355;BME280;8287;51.644;8.494;2023-04-21T00:39:59;100211.19;;;10.73;85.24
16355;BME280;8287;51.644;8.494;2023-04-21T00:42:25;100213.50;;;10.75;85.52
16355;BME280;8287;51.644;8.494;2023-04-21T00:44:52;100218.38;;;10.81;84.77
16355;BME280;8287;51.644;8.494;2023-04-21T00:47:20;100227.31;;;10.94;84.67
16355;BME280;8287;51.644;8.494;2023-04-21T00:49:47;100225.28;;;10.99;83.61
16355;BME280;8287;51.644;8.494;2023-04-21T00:52:14;100227.00;;;11.04;83.76
16355;BME280;8287;51.644;8.494;2023-04-21T00:54:43;100217.50;;;11.03;83.61
16355;BME280;8287;51.644;8.494;2023-04-21T00:57:10;100217.81;;;11.01;83.63
16355;BME280;8287;51.644;8.494;2023-04-21T00:59:37;100227.91;;;10.91;84.79
16355;BME280;8287;51.644;8.494;2023-04-21T01:02:03;100229.63;;;10.95;84.58
16355;BME280;8287;51.644;8.494;2023-04-21T01:04:31;100227.16;;;10.90;86.16
16355;BME280;8287;51.644;8.494;2023-04-21T01:07:03;100224.78;;;10.89;86.33
16355;BME280;8287;51.644;8.494;2023-04-21T01:09:30;100227.59;;;10.92;86.35
16355;BME280;8287;51.644;8.494;2023-04-21T01:12:01;100228.88;;;10.95;86.19
16355;BME280;8287;51.644;8.494;2023-04-21T01:14:28;100233.09;;;11.04;85.86
16355;BME280;8287;51.644;8.494;2023-04-21T01:16:55;100240.44;;;11.07;85.99
16355;BME280;8287;51.644;8.494;2023-04-21T01:19:22;100236.69;;;11.17;85.01
16355;BME280;8287;51.644;8.494;2023-04-21T01:21:50;100232.81;;;11.23;84.73
16355;BME280;8287;51.644;8.494;2023-04-21T01:24:18;100237.97;;;11.28;84.77
16355;BME280;8287;51.644;8.494;2023-04-21T01:26:44;100238.41;;;11.21;85.53
16355;BME280;8287;51.644;8.494;2023-04-21T01:29:13;100240.44;;;11.16;86.24
16355;BME280;8287;51.644;8.494;2023-04-21T01:31:40;100237.94;;;11.11;86.70
16355;BME280;8287;51.644;8.494;2023-04-21T01:34:07;100228.88;;;10.95;87.87
16355;BME280;8287;51.644;8.494;2023-04-21T01:36:34;100232.75;;;10.97;87.51
16355;BME280;8287;51.644;8.494;2023-04-21T01:39:02;100227.00;;;11.04;87.91
16355;BME280;8287;51.644;8.494;2023-04-21T01:41:29;100231.84;;;11.10;87.85
16355;BME280;8287;51.644;8.494;2023-04-21T01:43:56;100232.78;;;11.14;87.84
16355;BME280;8287;51.644;8.494;2023-04-21T01:46:22;100231.56;;;11.12;87.34
16355;BME280;8287;51.644;8.494;2023-04-21T01:48:49;100222.19;;;11.14;87.41
16355;BME280;8287;51.644;8.494;2023-04-21T01:51:15;100234.66;;;11.22;87.71
16355;BME280;8287;51.644;8.494;2023-04-21T01:53:42;100231.72;;;11.15;87.46
16355;BME280;8287;51.644;8.494;2023-04-21T01:56:13;100234.03;;;11.17;87.88
16355;BME280;8287;51.644;8.494;2023-04-21T01:58:40;100228.75;;;11.25;87.21
16355;BME280;8287;51.644;8.494;2023-04-21T02:01:07;100218.00;;;11.22;87.65
16355;BME280;8287;51.644;8.494;2023-04-21T02:03:34;100221.25;;;11.19;87.42
16355;BME280;8287;51.644;8.494;2023-04-21T02:06:00;100231.06;;;11.10;87.94
16355;BME280;8287;51.644;8.494;2023-04-21T02:08:28;100232.03;;;11.14;88.21
16355;BME280;8287;51.644;8.494;2023-04-21T02:10:54;100235.44;;;11.14;88.22
16355;BME280;8287;51.644;8.494;2023-04-21T02:13:22;100232.16;;;11.09;88.39
16355;BME280;8287;51.644;8.494;2023-04-21T02:15:49;100234.47;;;11.02;88.83
16355;BME280;8287;51.644;8.494;2023-04-21T02:18:15;100234.16;;;10.95;89.05
16355;BME280;8287;51.644;8.494;2023-04-21T02:20:42;100228.06;;;10.94;89.56
16355;BME280;8287;51.644;8.494;2023-04-21T02:23:09;100234.16;;;10.95;89.40
16355;BME280;8287;51.644;8.494;2023-04-21T02:25:36;100233.88;;;11.05;88.84
16355;BME280;8287;51.644;8.494;2023-04-21T02:28:02;100228.75;;;11.08;88.93
16355;BME280;8287;51.644;8.494;2023-04-21T02:30:30;100235.44;;;11.06;89.14
16355;BME280;8287;51.644;8.494;2023-04-21T02:32:57;100230.00;;;11.11;88.95
16355;BME280;8287;51.644;8.494;2023-04-21T02:35:23;100237.47;;;11.09;88.80
16355;BME280;8287;51.644;8.494;2023-04-21T02:37:50;100227.47;;;11.06;89.06
16355;BME280;8287;51.644;8.494;2023-04-21T02:40:17;100229.16;;;11.02;89.61
16355;BME280;8287;51.644;8.494;2023-04-21T02:42:43;100218.72;;;11.05;88.99
16355;BME280;8287;51.644;8.494;2023-04-21T02:45:10;100219.06;;;11.04;89.04
16355;BME280;8287;51.644;8.494;2023-04-21T02:47:38;100224.19;;;11.09;89.10
16355;BME280;8287;51.644;8.494;2023-04-21T02:50:05;100223.91;;;11.19;88.64
16355;BME280;8287;51.644;8.494;2023-04-21T02:52:34;100222.34;;;11.18;88.50
16355;BME280;8287;51.644;8.494;2023-04-21T02:55:01;100234.03;;;11.17;88.60
16355;BME280;8287;51.644;8.494;2023-04-21T02:57:28;100227.84;;;11.30;88.16
16355;BME280;8287;51.644;8.494;2023-04-21T02:59:55;100226.75;;;11.31;88.33
16355;BME280;8287;51.644;8.494;2023-04-21T03:02:21;100227.50;;;11.31;87.73
16355;BME280;8287;51.644;8.494;2023-04-21T03:04:49;100223.94;;;11.36;87.94
16355;BME280;8287;51.644;8.494;2023-04-21T03:07:17;100224.38;;;11.29;87.97
16355;BME280;8287;51.644;8.494;2023-04-21T03:09:44;100232.81;;;11.31;88.08
16355;BME280;8287;51.644;8.494;2023-04-21T03:12:10;100229.38;;;11.22;87.92
16355;BME280;8287;51.644;8.494;2023-04-21T03:14:37;100220.81;;;11.25;87.93
16355;BME280;8287;51.644;8.494;2023-04-21T03:17:03;100220.81;;;11.34;87.70
16355;BME280;8287;51.644;8.494;2023-04-21T03:19:30;100225.34;;;11.33;87.84
16355;BME280;8287;51.644;8.494;2023-04-21T03:21:58;100223.94;;;11.36;87.91
16355;BME280;8287;51.644;8.494;2023-04-21T03:24:25;100221.13;;;11.41;87.75
16355;BME280;8287;51.644;8.494;2023-04-21T03:26:52;100229.56;;;11.34;87.39
16355;BME280;8287;51.644;8.494;2023-04-21T03:29:19;100224.72;;;11.45;87.63
16355;BME280;8287;51.644;8.494;2023-04-21T03:31:46;100233.94;;;11.56;87.01
16355;BME280;8287;51.644;8.494;2023-04-21T03:34:12;100229.72;;;11.55;86.99
16355;BME280;8287;51.644;8.494;2023-04-21T03:36:39;100230.19;;;11.57;86.61
16355;BME280;8287;51.644;8.494;2023-04-21T03:39:07;100223.97;;;11.61;86.46
16355;BME280;8287;51.644;8.494;2023-04-21T03:41:34;100223.34;;;11.64;86.26
16355;BME280;8287;51.644;8.494;2023-04-21T03:44:00;100233.31;;;11.76;85.42
16355;BME280;8287;51.644;8.494;2023-04-21T03:46:27;100224.91;;;11.74;85.30
16355;BME280;8287;51.644;8.494;2023-04-21T03:48:53;100230.53;;;11.81;85.22
16355;BME280;8287;51.644;8.494;2023-04-21T03:51:20;100233.31;;;11.76;85.18
16355;BME280;8287;51.644;8.494;2023-04-21T03:53:47;100230.66;;;11.76;85.28
16355;BME280;8287;51.644;8.494;2023-04-21T03:56:14;100231.44;;;11.68;85.40
16355;BME280;8287;51.644;8.494;2023-04-21T03:58:41;100235.06;;;11.72;85.86
16355;BME280;8287;51.644;8.494;2023-04-21T04:01:08;100230.84;;;11.71;85.69
16355;BME280;8287;51.644;8.494;2023-04-21T04:03:34;100228.16;;;11.79;84.77
16355;BME280;8287;51.644;8.494;2023-04-21T04:06:01;100220.22;;;11.79;84.57
16355;BME280;8287;51.644;8.494;2023-04-21T04:08:28;100221.59;;;11.77;84.76
16355;BME280;8287;51.644;8.494;2023-04-21T04:10:55;100222.69;;;11.76;84.74
16355;BME280;8287;51.644;8.494;2023-04-21T04:13:23;100224.28;;;11.60;85.04
16355;BME280;8287;51.644;8.494;2023-04-21T04:15:51;100215.69;;;11.63;85.11
16355;BME280;8287;51.644;8.494;2023-04-21T04:18:17;100220.06;;;11.67;84.96
16355;BME280;8287;51.644;8.494;2023-04-21T04:20:44;100217.41;;;11.59;85.28
16355;BME280;8287;51.644;8.494;2023-04-21T04:23:10;100224.13;;;11.65;84.74
16355;BME280;8287;51.644;8.494;2023-04-21T04:25:37;100217.09;;;11.69;85.33
16355;BME280;8287;51.644;8.494;2023-04-21T04:28:04;100216.31;;;11.68;84.37
16355;BME280;8287;51.644;8.494;2023-04-21T04:30:33;100223.19;;;11.78;84.38
16355;BME280;8287;51.644;8.494;2023-04-21T04:32:59;100217.88;;;11.78;84.83
16355;BME280;8287;51.644;8.494;2023-04-21T04:35:26;100217.56;;;11.88;83.32
16355;BME280;8287;51.644;8.494;2023-04-21T04:37:52;100221.47;;;11.90;83.13
16355;BME280;8287;51.644;8.494;2023-04-21T04:40:21;100217.22;;;11.89;82.78
16355;BME280;8287;51.644;8.494;2023-04-21T04:42:47;100216.75;;;11.87;82.90
16355;BME280;8287;51.644;8.494;2023-04-21T04:45:15;100224.72;;;11.87;83.47
16355;BME280;8287;51.644;8.494;2023-04-21T04:47:47;100223.78;;;11.92;83.21
16355;BME280;8287;51.644;8.494;2023-04-21T04:50:13;100230.81;;;11.88;82.87
16355;BME280;8287;51.644;8.494;2023-04-21T04:52:40;100232.06;;;11.90;82.63
16355;BME280;8287;51.644;8.494;2023-04-21T04:55:09;100229.72;;;11.80;83.43
16355;BME280;8287;51.644;8.494;2023-04-21T04:57:35;100235.19;;;11.84;83.57
16355;BME280;8287;51.644;8.494;2023-04-21T05:00:02;100231.63;;;11.80;83.63
16355;BME280;8287;51.644;8.494;2023-04-21T05:02:31;100230.38;;;11.77;83.50
16355;BME280;8287;51.644;8.494;2023-04-21T05:04:59;100229.41;;;11.73;83.93
16355;BME280;8287;51.644;8.494;2023-04-21T05:07:25;100231.16;;;11.78;83.60
16355;BME280;8287;51.644;8.494;2023-04-21T05:09:52;100221.47;;;11.82;83.48
16355;BME280;8287;51.644;8.494;2023-04-21T05:12:19;100229.44;;;11.90;83.66
16355;BME280;8287;51.644;8.494;2023-04-21T05:14:45;100229.53;;;11.94;83.70
16355;BME280;8287;51.644;8.494;2023-04-21T05:17:12;100232.53;;;11.92;84.16
16355;BME280;8287;51.644;8.494;2023-04-21T05:19:38;100233.47;;;11.96;83.76
16355;BME280;8287;51.644;8.494;2023-04-21T05:22:06;100229.53;;;11.94;84.44
16355;BME280;8287;51.644;8.494;2023-04-21T05:24:33;100237.66;;;12.06;83.39
16355;BME280;8287;51.644;8.494;2023-04-21T05:27:00;100235.78;;;12.06;83.21
16355;BME280;8287;51.644;8.494;2023-04-21T05:29:27;100229.41;;;12.07;83.53
16355;BME280;8287;51.644;8.494;2023-04-21T05:31:53;100237.47;;;12.11;83.54
16355;BME280;8287;51.644;8.494;2023-04-21T05:34:20;100242.34;;;12.17;82.58
16355;BME280;8287;51.644;8.494;2023-04-21T05:36:47;100239.69;;;12.17;82.63
16355;BME280;8287;51.644;8.494;2023-04-21T05:39:15;100247.50;;;12.14;83.19
16355;BME280;8287;51.644;8.494;2023-04-21T05:41:42;100244.66;;;12.27;82.66
16355;BME280;8287;51.644;8.494;2023-04-21T05:44:09;100242.94;;;12.14;82.63
16355;BME280;8287;51.644;8.494;2023-04-21T05:46:35;100243.75;;;12.15;82.98
16355;BME280;8287;51.644;8.494;2023-04-21T05:49:02;100248.41;;;12.18;83.29
16355;BME280;8287;51.644;8.494;2023-04-21T05:51:29;100250.75;;;12.19;83.32
16355;BME280;8287;51.644;8.494;2023-04-21T05:53:56;100246.69;;;12.22;83.39
16355;BME280;8287;51.644;8.494;2023-04-21T05:56:24;100238.09;;;12.25;83.25
16355;BME280;8287;51.644;8.494;2023-04-21T05:58:51;100240.06;;;12.45;83.04
16355;BME280;8287;51.644;8.494;2023-04-21T06:01:17;100242.03;;;12.56;82.13
16355;BME280;8287;51.644;8.494;2023-04-21T06:03:44;100236.09;;;12.59;81.83
16355;BME280;8287;51.644;8.494;2023-04-21T06:06:13;100238.09;;;12.71;81.29
16355;BME280;8287;51.644;8.494;2023-04-21T06:08:40;100235.50;;;12.91;81.13
16355;BME280;8287;51.644;8.494;2023-04-21T06:11:06;100233.72;;;13.04;80.62
16355;BME280;8287;51.644;8.494;2023-04-21T06:13:34;100224.06;;;12.99;80.62
16355;BME280;8287;51.644;8.494;2023-04-21T06:16:01;100220.22;;;13.09;80.12
16355;BME280;8287;51.644;8.494;2023-04-21T06:18:27;100229.00;;;13.09;79.60
16355;BME280;8287;51.644;8.494;2023-04-21T06:20:54;100223.97;;;13.16;79.98
16355;BME280;8287;51.644;8.494;2023-04-21T06:23:21;100230.06;;;13.37;78.81
16355;BME280;8287;51.644;8.494;2023-04-21T06:25:57;100225.53;;;13.37;78.28
16355;BME280;8287;51.644;8.494;2023-04-21T06:28:24;100232.88;;;13.12;78.33
16355;BME280;8287;51.644;8.494;2023-04-21T06:30:52;100221.22;;;13.24;79.17
16355;BME280;8287;51.644;8.494;2023-04-21T06:33:19;100229.91;;;13.33;78.28
16355;BME280;8287;51.644;8.494;2023-04-21T06:35:45;100221.88;;;13.42;78.14
16355;BME280;8287;51.644;8.494;2023-04-21T06:38:12;100231.22;;;13.48;77.86
16355;BME280;8287;51.644;8.494;2023-04-21T06:40:39;100220.78;;;13.63;77.49
16355;BME280;8287;51.644;8.494;2023-04-21T06:43:05;100224.13;;;13.72;77.51
16355;BME280;8287;51.644;8.494;2023-04-21T06:45:32;100223.13;;;13.97;76.35
16355;BME280;8287;51.644;8.494;2023-04-21T06:48:00;100230.53;;;13.92;75.38
16355;BME280;8287;51.644;8.494;2023-04-21T06:50:26;100226.91;;;13.96;75.76
16355;BME280;8287;51.644;8.494;2023-04-21T06:52:53;100220.91;;;14.11;75.48
16355;BME280;8287;51.644;8.494;2023-04-21T06:55:20;100224.25;;;14.08;74.89
16355;BME280;8287;51.644;8.494;2023-04-21T06:57:46;100232.06;;;14.13;74.95
16355;BME280;8287;51.644;8.494;2023-04-21T07:00:14;100236.78;;;14.40;73.65
16355;BME280;8287;51.644;8.494;2023-04-21T07:02:40;100230.59;;;14.48;73.78
16355;BME280;8287;51.644;8.494;2023-04-21T07:05:08;100221.34;;;14.58;73.31
16355;BME280;8287;51.644;8.494;2023-04-21T07:07:35;100220.69;;;14.49;73.47
16355;BME280;8287;51.644;8.494;2023-04-21T07:10:02;100219.69;;;14.77;73.25
16355;BME280;8287;51.644;8.494;2023-04-21T07:12:28;100214.03;;;14.91;72.67
16355;BME280;8287;51.644;8.494;2023-04-21T07:14:55;100214.22;;;15.22;72.50
16355;BME280;8287;51.644;8.494;2023-04-21T07:17:22;100208.63;;;15.51;71.55
16355;BME280;8287;51.644;8.494;2023-04-21T07:19:48;100202.44;;;15.62;70.33
16355;BME280;8287;51.644;8.494;2023-04-21T07:22:16;100199.22;;;15.57;69.49
16355;BME280;8287;51.644;8.494;2023-04-21T07:24:43;100199.81;;;15.78;68.80
16355;BME280;8287;51.644;8.494;2023-04-21T07:27:09;100198.50;;;15.99;68.06
16355;BME280;8287;51.644;8.494;2023-04-21T07:29:36;100205.44;;;16.31;67.08
16355;BME280;8287;51.644;8.494;2023-04-21T07:32:02;100201.25;;;16.18;66.58
16355;BME280;8287;51.644;8.494;2023-04-21T07:34:29;100199.88;;;16.09;65.91
16355;BME280;8287;51.644;8.494;2023-04-21T07:36:56;100200.72;;;16.40;66.48
16355;BME280;8287;51.644;8.494;2023-04-21T07:39:24;100199.69;;;16.45;65.12
16355;BME280;8287;51.644;8.494;2023-04-21T07:41:50;100191.56;;;16.72;64.94
16355;BME280;8287;51.644;8.494;2023-04-21T07:44:18;100201.19;;;16.92;63.81
16355;BME280;8287;51.644;8.494;2023-04-21T07:46:44;100201.84;;;17.04;64.48
16355;BME280;8287;51.644;8.494;2023-04-21T07:49:11;100198.25;;;17.69;64.15
16355;BME280;8287;51.644;8.494;2023-04-21T07:51:37;100201.22;;;17.45;63.09
16355;BME280;8287;51.644;8.494;2023-04-21T07:54:04;100197.59;;;17.76;60.70
16355;BME280;8287;51.644;8.494;2023-04-21T07:56:32;100193.13;;;18.25;60.26
16355;BME280;8287;51.644;8.494;2023-04-21T07:58:59;100197.94;;;18.35;59.79
16355;BME280;8287;51.644;8.494;2023-04-21T08:01:25;100201.09;;;18.40;59.78
16355;BME280;8287;51.644;8.494;2023-04-21T08:03:52;100204.59;;;18.67;58.01
16355;BME280;8287;51.644;8.494;2023-04-21T08:06:18;100200.53;;;18.54;58.10
16355;BME280;8287;51.644;8.494;2023-04-21T08:08:45;100198.06;;;18.42;58.00
16355;BME280;8287;51.644;8.494;2023-04-21T08:11:12;100200.09;;;18.07;59.88
16355;BME280;8287;51.644;8.494;2023-04-21T08:13:39;100204.66;;;17.84;58.37
16355;BME280;8287;51.644;8.494;2023-04-21T08:16:06;100205.84;;;17.67;58.42
16355;BME280;8287;51.644;8.494;2023-04-21T08:18:33;100200.38;;;17.07;60.72
16355;BME280;8287;51.644;8.494;2023-04-21T08:21:00;100201.78;;;17.20;60.94
16355;BME280;8287;51.644;8.494;2023-04-21T08:23:27;100193.56;;;16.94;62.38
16355;BME280;8287;51.644;8.494;2023-04-21T08:25:55;100194.44;;;16.98;62.00
16355;BME280;8287;51.644;8.494;2023-04-21T08:28:22;100199.09;;;17.01;62.64
16355;BME280;8287;51.644;8.494;2023-04-21T08:30:50;100193.88;;;17.08;62.41
16355;BME280;8287;51.644;8.494;2023-04-21T08:33:16;100192.53;;;17.17;61.85
16355;BME280;8287;51.644;8.494;2023-04-21T08:35:43;100184.47;;;17.14;61.54
16355;BME280;8287;51.644;8.494;2023-04-21T08:38:09;100184.50;;;17.17;61.73
16355;BME280;8287;51.644;8.494;2023-04-21T08:40:37;100190.91;;;17.47;62.68
16355;BME280;8287;51.644;8.494;2023-04-21T08:43:04;100190.41;;;18.21;60.01
16355;BME280;8287;51.644;8.494;2023-04-21T08:45:32;100190.13;;;18.49;58.53
16355;BME280;8287;51.644;8.494;2023-04-21T08:48:01;100192.81;;;18.49;58.36
16355;BME280;8287;51.644;8.494;2023-04-21T08:50:30;100187.84;;;18.51;57.70
16355;BME280;8287;51.644;8.494;2023-04-21T08:52:57;100182.66;;;18.39;58.39
16355;BME280;8287;51.644;8.494;2023-04-21T08:55:25;100188.44;;;18.63;57.28
16355;BME280;8287;51.644;8.494;2023-04-21T08:57:52;100174.53;;;18.84;57.31
16355;BME280;8287;51.644;8.494;2023-04-21T09:00:19;100162.22;;;19.09;56.53
16355;BME280;8287;51.644;8.494;2023-04-21T09:02:54;100173.63;;;18.99;56.16
16355;BME280;8287;51.644;8.494;2023-04-21T09:05:23;100175.31;;;19.14;55.69
16355;BME280;8287;51.644;8.494;2023-04-21T09:07:51;100171.38;;;19.04;54.63
16355;BME280;8287;51.644;8.494;2023-04-21T09:10:21;100165.19;;;19.00;54.91
16355;BME280;8287;51.644;8.494;2023-04-21T09:12:50;100155.94;;;18.98;56.48
16355;BME280;8287;51.644;8.494;2023-04-21T09:15:19;100166.34;;;19.29;55.95
16355;BME280;8287;51.644;8.494;2023-04-21T09:17:53;100172.56;;;19.66;54.04
16355;BME280;8287;51.644;8.494;2023-04-21T09:20:23;100180.44;;;19.52;53.20
16355;BME280;8287;51.644;8.494;2023-04-21T09:22:50;100180.88;;;19.24;54.20
16355;BME280;8287;51.644;8.494;2023-04-21T09:25:19;100185.38;;;19.17;54.27
16355;BME280;8287;51.644;8.494;2023-04-21T09:27:46;100175.63;;;19.35;55.38
16355;BME280;8287;51.644;8.494;2023-04-21T09:30:13;100173.63;;;18.99;54.19
16355;BME280;8287;51.644;8.494;2023-04-21T09:32:43;100171.59;;;19.51;55.10
16355;BME280;8287;51.644;8.494;2023-04-21T09:35:10;100162.31;;;19.78;52.46
16355;BME280;8287;51.644;8.494;2023-04-21T09:37:39;100161.09;;;19.10;54.14
16355;BME280;8287;51.644;8.494;2023-04-21T09:40:11;100155.19;;;19.27;54.95
16355;BME280;8287;51.644;8.494;2023-04-21T09:42:38;100155.28;;;19.34;56.30
16355;BME280;8287;51.644;8.494;2023-04-21T09:45:06;100165.06;;;19.49;54.87
16355;BME280;8287;51.644;8.494;2023-04-21T09:47:37;100166.31;;;19.58;53.96
16355;BME280;8287;51.644;8.494;2023-04-21T09:50:06;100158.81;;;19.41;54.71
16355;BME280;8287;51.644;8.494;2023-04-21T09:52:33;100162.69;;;19.44;54.20
16355;BME280;8287;51.644;8.494;2023-04-21T09:55:01;100155.91;;;19.57;54.16
16355;BME280;8287;51.644;8.494;2023-04-21T09:57:31;100152.78;;;19.51;54.46
16355;BME280;8287;51.644;8.494;2023-04-21T10:00:00;100144.19;;;19.39;54.95
16355;BME280;8287;51.644;8.494;2023-04-21T10:02:30;100137.75;;;19.47;53.75
16355;BME280;8287;51.644;8.494;2023-04-21T10:04:57;100143.56;;;19.49;53.71
16355;BME280;8287;51.644;8.494;2023-04-21T10:07:24;100135.16;;;19.54;54.00
16355;BME280;8287;51.644;8.494;2023-04-21T10:09:51;100125.75;;;20.10;53.18
16355;BME280;8287;51.644;8.494;2023-04-21T10:12:21;100119.84;;;19.98;53.65
16355;BME280;8287;51.644;8.494;2023-04-21T10:14:50;100119.06;;;20.40;52.37
16355;BME280;8287;51.644;8.494;2023-04-21T10:17:17;100117.66;;;20.60;52.93
16355;BME280;8287;51.644;8.494;2023-04-21T10:19:49;100113.03;;;20.57;51.72
16355;BME280;8287;51.644;8.494;2023-04-21T10:22:25;100117.88;;;20.35;51.45
16355;BME280;8287;51.644;8.494;2023-04-21T10:24:54;100113.84;;;20.11;51.86
16355;BME280;8287;51.644;8.494;2023-04-21T10:27:32;100116.44;;;20.01;51.95
16355;BME280;8287;51.644;8.494;2023-04-21T10:29:58;100106.13;;;19.70;52.49
16355;BME280;8287;51.644;8.494;2023-04-21T10:32:41;100115.03;;;20.17;51.52
16355;BME280;8287;51.644;8.494;2023-04-21T10:35:09;100099.88;;;19.99;52.16
16355;BME280;8287;51.644;8.494;2023-04-21T10:37:36;100104.91;;;20.47;51.45
16355;BME280;8287;51.644;8.494;2023-04-21T10:40:03;100103.81;;;20.58;51.31
16355;BME280;8287;51.644;8.494;2023-04-21T10:42:35;100096.44;;;20.52;50.47
16355;BME280;8287;51.644;8.494;2023-04-21T10:45:13;100092.38;;;20.75;50.85
16355;BME280;8287;51.644;8.494;2023-04-21T10:47:45;100082.97;;;21.23;49.24
16355;BME280;8287;51.644;8.494;2023-04-21T10:50:18;100083.44;;;21.53;47.56
16355;BME280;8287;51.644;8.494;2023-04-21T10:52:50;100092.22;;;21.26;48.20
16355;BME280;8287;51.644;8.494;2023-04-21T10:55:18;100086.00;;;21.11;48.83
16355;BME280;8287;51.644;8.494;2023-04-21T10:57:47;100079.13;;;21.31;49.25
16355;BME280;8287;51.644;8.494;2023-04-21T11:00:16;100068.56;;;20.84;48.18
16355;BME280;8287;51.644;8.494;2023-04-21T11:02:52;100067.09;;;20.97;48.68
16355;BME280;8287;51.644;8.494;2023-04-21T11:05:19;100060.16;;;20.93;48.92
16355;BME280;8287;51.644;8.494;2023-04-21T11:07:46;100069.06;;;21.11;48.45
16355;BME280;8287;51.644;8.494;2023-04-21T11:10:12;100058.72;;;21.30;47.30
16355;BME280;8287;51.644;8.494;2023-04-21T11:12:39;100050.19;;;21.11;47.61
16355;BME280;8287;51.644;8.494;2023-04-21T11:15:10;100041.69;;;20.91;49.01
16355;BME280;8287;51.644;8.494;2023-04-21T11:17:37;100040.53;;;20.99;47.70
16355;BME280;8287;51.644;8.494;2023-04-21T11:20:08;100035.97;;;21.07;47.76
16355;BME280;8287;51.644;8.494;2023-04-21T11:22:36;100024.88;;;21.43;47.81
16355;BME280;8287;51.644;8.494;2023-04-21T11:25:03;100020.25;;;21.54;46.91
16355;BME280;8287;51.644;8.494;2023-04-21T11:27:30;100019.16;;;21.66;47.58
16355;BME280;8287;51.644;8.494;2023-04-21T11:29:56;100015.28;;;21.95;46.64
16355;BME280;8287;51.644;8.494;2023-04-21T11:32:24;100011.81;;;21.87;46.82
16355;BME280;8287;51.644;8.494;2023-04-21T11:34:51;99993.25;;;22.24;45.55
16355;BME280;8287;51.644;8.494;2023-04-21T11:37:22;99997.88;;;22.41;46.11
16355;BME280;8287;51.644;8.494;2023-04-21T11:39:55;100004.84;;;22.14;45.40
16355;BME280;8287;51.644;8.494;2023-04-21T11:42:22;100004.84;;;22.07;45.43
16355;BME280;8287;51.644;8.494;2023-04-21T11:44:49;99985.94;;;22.21;44.53
16355;BME280;8287;51.644;8.494;2023-04-21T11:47:16;99989.00;;;22.41;43.92
16355;BME280;8287;51.644;8.494;2023-04-21T11:49:46;99995.56;;;22.26;44.79
16355;BME280;8287;51.644;8.494;2023-04-21T11:52:23;99985.63;;;21.84;45.02
16355;BME280;8287;51.644;8.494;2023-04-21T11:54:55;99989.44;;;21.52;43.43
16355;BME280;8287;51.644;8.494;2023-04-21T11:57:22;99991.75;;;21.39;43.38
16355;BME280;8287;51.644;8.494;2023-04-21T11:59:49;99985.19;;;21.40;43.58
16355;BME280;8287;51.644;8.494;2023-04-21T12:02:26;99986.75;;;21.90;42.79
16355;BME280;8287;51.644;8.494;2023-04-21T12:04:59;99981.75;;;21.61;43.74
16355;BME280;8287;51.644;8.494;2023-04-21T12:07:28;99981.00;;;21.67;43.80
16355;BME280;8287;51.644;8.494;2023-04-21T12:09:55;99980.59;;;21.65;43.80
16355;BME280;8287;51.644;8.494;2023-04-21T12:12:22;99971.72;;;21.40;44.69
16355;BME280;8287;51.644;8.494;2023-04-21T12:14:50;99977.13;;;21.58;43.44
16355;BME280;8287;51.644;8.494;2023-04-21T12:17:17;99972.47;;;21.23;43.63
16355;BME280;8287;51.644;8.494;2023-04-21T12:19:44;99978.28;;;21.50;43.58
16355;BME280;8287;51.644;8.494;2023-04-21T12:22:14;99960.94;;;21.61;43.54
16355;BME280;8287;51.644;8.494;2023-04-21T12:24:42;99971.72;;;21.47;44.71
16355;BME280;8287;51.644;8.494;2023-04-21T12:27:10;99964.00;;;21.95;42.66
16355;BME280;8287;51.644;8.494;2023-04-21T12:29:38;99954.69;;;22.24;41.83
16355;BME280;8287;51.644;8.494;2023-04-21T12:32:05;99950.00;;;22.52;42.04
16355;BME280;8287;51.644;8.494;2023-04-21T12:34:32;99955.41;;;22.52;40.93
16355;BME280;8287;51.644;8.494;2023-04-21T12:36:59;99945.53;;;21.97;41.05
16355;BME280;8287;51.644;8.494;2023-04-21T12:39:27;99952.47;;;21.70;41.10
16355;BME280;8287;51.644;8.494;2023-04-21T12:41:54;99957.09;;;21.59;40.42
16355;BME280;8287;51.644;8.494;2023-04-21T12:44:21;99954.00;;;21.64;41.12
16355;BME280;8287;51.644;8.494;2023-04-21T12:46:48;99940.84;;;22.15;39.13
16355;BME280;8287;51.644;8.494;2023-04-21T12:49:15;99947.06;;;21.87;39.53
16355;BME280;8287;51.644;8.494;2023-04-21T12:51:42;99937.44;;;21.93;40.59
16355;BME280;8287;51.644;8.494;2023-04-21T12:54:08;99937.72;;;22.23;40.18
16355;BME280;8287;51.644;8.494;2023-04-21T12:56:36;99936.53;;;22.35;39.10
16355;BME280;8287;51.644;8.494;2023-04-21T12:59:04;99941.63;;;22.08;39.06
16355;BME280;8287;51.644;8.494;2023-04-21T13:01:31;99934.75;;;21.93;39.79
16355;BME280;8287;51.644;8.494;2023-04-21T13:03:58;99937.44;;;22.00;39.23